createdAt,value
2019-03-23T00:02:29.062Z,35.20
2019-03-23T00:04:59.288Z,35.16
2019-03-23T00:07:29.529Z,35.26
2019-03-23T00:09:59.764Z,35.51
2019-03-23T00:12:29.983Z,35.62
2019-03-23T00:15:00.308Z,35.95
2019-03-23T00:17:30.602Z,36.17
2019-03-23T00:20:00.757Z,36.26
2019-03-23T00:22:30.977Z,36.28
2019-03-23T00:25:01.195Z,36.31
2019-03-23T00:27:31.495Z,36.03
2019-03-23T00:30:01.730Z,35.97
2019-03-23T00:32:32.042Z,35.88
2019-03-23T00:35:02.203Z,35.78
2019-03-23T00:37:32.397Z,35.78
2019-03-23T00:40:02.643Z,35.78
2019-03-23T00:42:32.927Z,35.71
2019-03-23T00:45:03.266Z,35.71
2019-03-23T00:47:33.395Z,35.66
2019-03-23T00:50:03.623Z,35.73
2019-03-23T00:52:33.853Z,35.72
2019-03-23T00:55:04.154Z,35.66
2019-03-23T00:57:34.376Z,35.52
2019-03-23T01:00:04.861Z,35.59
2019-03-23T01:02:35.022Z,35.86
2019-03-23T01:05:05.701Z,35.83
2019-03-23T01:07:35.890Z,35.85
2019-03-23T01:10:07.232Z,35.98
2019-03-23T01:12:37.407Z,35.89
2019-03-23T01:15:08.301Z,35.99
2019-03-23T01:17:38.614Z,36.00
2019-03-23T01:20:09.160Z,35.96
2019-03-23T01:22:39.366Z,35.90
2019-03-23T01:25:09.539Z,35.82
2019-03-23T01:27:39.708Z,35.81
2019-03-23T01:30:10.523Z,35.91
2019-03-23T01:32:40.773Z,35.92
2019-03-23T01:35:11.398Z,35.94
2019-03-23T01:37:41.527Z,35.90
2019-03-23T01:40:11.664Z,35.90
2019-03-23T01:42:41.905Z,35.88
2019-03-23T01:45:11.994Z,35.87
2019-03-23T01:47:42.310Z,35.98
2019-03-23T01:50:12.950Z,35.94
2019-03-23T01:52:43.181Z,35.97
2019-03-23T01:55:13.501Z,35.93
2019-03-23T01:57:43.690Z,36.00
2019-03-23T02:00:13.862Z,36.02
2019-03-23T02:02:44.159Z,35.94
2019-03-23T02:05:14.392Z,35.86
2019-03-23T02:07:44.625Z,35.95
2019-03-23T02:10:14.856Z,35.91
2019-03-23T02:12:45.063Z,35.88
2019-03-23T02:15:15.303Z,35.87
2019-03-23T02:17:45.599Z,35.88
2019-03-23T02:20:15.831Z,35.88
2019-03-23T02:22:45.953Z,35.89
2019-03-23T02:25:16.135Z,35.83
2019-03-23T02:27:46.390Z,35.81
2019-03-23T02:30:16.619Z,35.75
2019-03-23T02:32:46.758Z,35.87
2019-03-23T02:35:16.985Z,35.80
2019-03-23T02:37:47.218Z,35.80
2019-03-23T02:40:17.496Z,35.76
2019-03-23T02:42:47.733Z,35.89
2019-03-23T02:45:17.885Z,35.88
2019-03-23T02:47:48.105Z,35.88
2019-03-23T02:50:18.320Z,35.90
2019-03-23T02:52:48.628Z,35.89
2019-03-23T02:55:18.753Z,36.04
2019-03-23T02:57:48.895Z,36.13
2019-03-23T03:00:19.118Z,36.15
2019-03-23T03:02:49.502Z,36.09
2019-03-23T03:05:19.730Z,36.13
2019-03-23T03:07:49.909Z,36.14
2019-03-23T03:10:42.307Z,36.12
2019-03-23T03:13:12.453Z,36.21
2019-03-23T03:15:42.668Z,36.18
2019-03-23T03:18:12.973Z,36.09
2019-03-23T03:20:43.201Z,36.17
2019-03-23T03:23:13.238Z,36.19
2019-03-23T03:25:43.571Z,36.11
2019-03-23T03:28:13.793Z,36.24
2019-03-23T03:30:44.077Z,36.25
2019-03-23T03:33:14.333Z,36.26
2019-03-23T03:35:44.461Z,36.25
2019-03-23T03:38:14.689Z,36.20
2019-03-23T03:40:44.884Z,36.23
2019-03-23T03:43:15.206Z,36.23
2019-03-23T03:45:45.529Z,36.29
2019-03-23T03:48:15.687Z,36.30
2019-03-23T03:50:45.910Z,36.43
2019-03-23T03:53:16.156Z,36.30
2019-03-23T03:55:46.414Z,36.30
2019-03-23T03:58:16.637Z,36.33
2019-03-23T04:00:46.791Z,36.50
2019-03-23T04:03:17.006Z,36.47
2019-03-23T04:05:47.235Z,36.60
2019-03-23T04:08:17.528Z,36.58
2019-03-23T04:10:47.761Z,36.49
2019-03-23T04:13:17.900Z,36.48
2019-03-23T04:15:48.230Z,36.52
2019-03-23T04:18:18.440Z,36.58
2019-03-23T04:20:48.807Z,36.61
2019-03-23T04:23:19.065Z,36.45
2019-03-23T04:25:49.292Z,36.42
2019-03-23T04:28:19.561Z,36.45
2019-03-23T04:30:49.758Z,36.51
2019-03-23T04:33:19.991Z,36.42
2019-03-23T04:35:50.285Z,36.53
2019-03-23T04:38:22.995Z,36.55
2019-03-23T04:40:52.469Z,36.54
2019-03-23T04:43:22.611Z,36.53
2019-03-23T04:45:52.732Z,36.47
2019-03-23T04:48:22.945Z,36.42
2019-03-23T04:50:53.259Z,36.49
2019-03-23T04:53:23.435Z,36.59
2019-03-23T04:55:53.609Z,36.63
2019-03-23T04:58:23.835Z,36.66
2019-03-23T05:00:53.907Z,36.46
2019-03-23T05:03:24.111Z,36.66
2019-03-23T05:05:54.312Z,36.57
2019-03-23T05:08:32.943Z,36.50
2019-03-23T05:10:56.491Z,36.53
2019-03-23T05:13:27.097Z,36.53
2019-03-23T05:15:57.365Z,36.68
2019-03-23T05:18:27.691Z,36.70
2019-03-23T05:20:57.908Z,36.62
2019-03-23T05:23:28.140Z,36.72
2019-03-23T05:25:58.368Z,36.33
2019-03-23T05:28:28.667Z,36.53
2019-03-23T05:30:59.056Z,36.85
2019-03-23T05:33:29.233Z,36.91
2019-03-23T05:35:59.464Z,37.08
2019-03-23T05:38:29.712Z,37.25
2019-03-23T05:40:59.976Z,37.61
2019-03-23T05:43:30.214Z,38.08
2019-03-23T05:46:00.444Z,38.08
2019-03-23T05:48:30.688Z,38.47
2019-03-23T05:51:00.896Z,38.60
2019-03-23T05:53:31.237Z,38.87
2019-03-23T05:56:01.280Z,39.02
2019-03-23T05:58:31.293Z,39.49
2019-03-23T06:01:01.381Z,39.56
2019-03-23T06:03:31.597Z,39.73
2019-03-23T06:06:01.910Z,40.04
2019-03-23T06:08:31.966Z,40.06
2019-03-23T06:11:02.186Z,39.95
2019-03-23T06:13:32.470Z,40.06
2019-03-23T06:16:02.913Z,40.02
2019-03-23T06:18:33.220Z,39.99
2019-03-23T06:21:03.374Z,40.02
2019-03-23T06:23:33.609Z,36.90
2019-03-23T06:26:06.342Z,36.96
2019-03-23T06:28:35.759Z,38.74
2019-03-23T06:31:05.976Z,38.58
2019-03-23T06:33:36.188Z,38.44
2019-03-23T06:36:06.647Z,38.61
2019-03-23T06:38:36.848Z,38.82
2019-03-23T06:41:07.306Z,38.67
2019-03-23T06:43:37.514Z,38.73
2019-03-23T06:46:07.818Z,38.53
2019-03-23T06:48:38.151Z,38.76
2019-03-23T06:51:08.368Z,39.13
2019-03-23T06:53:38.515Z,38.96
2019-03-23T06:56:08.728Z,38.85
2019-03-23T06:58:39.044Z,38.89
2019-03-23T07:01:09.361Z,38.92
2019-03-23T07:03:39.509Z,38.81
2019-03-23T07:06:09.728Z,38.76
2019-03-23T07:08:39.957Z,38.87
2019-03-23T07:11:10.301Z,38.82
2019-03-23T07:13:40.581Z,38.88
2019-03-23T07:16:10.725Z,38.80
2019-03-23T07:18:40.958Z,38.73
2019-03-23T07:21:11.207Z,38.81
2019-03-23T07:23:41.195Z,38.75
2019-03-23T07:26:11.304Z,38.78
2019-03-23T07:28:41.254Z,38.83
2019-03-23T07:31:11.523Z,38.96
2019-03-23T07:33:41.758Z,38.90
2019-03-23T07:36:11.808Z,38.88
2019-03-23T07:38:42.011Z,38.98
2019-03-23T07:41:12.248Z,38.92
2019-03-23T07:43:42.546Z,38.85
2019-03-23T07:46:12.867Z,38.78
2019-03-23T07:48:43.120Z,38.70
2019-03-23T07:51:13.350Z,38.72
2019-03-23T07:53:43.559Z,38.62
2019-03-23T07:56:13.864Z,38.59
2019-03-23T07:58:44.238Z,38.58
2019-03-23T08:01:14.429Z,38.53
2019-03-23T08:03:44.653Z,38.57
2019-03-23T08:06:14.888Z,38.93
2019-03-23T08:08:45.229Z,38.46
2019-03-23T08:11:15.505Z,38.31
2019-03-23T08:13:45.724Z,38.16
2019-03-23T08:16:15.869Z,38.39
2019-03-23T08:18:46.089Z,38.40
2019-03-23T08:21:16.430Z,38.48
2019-03-23T08:23:46.717Z,38.43
2019-03-23T08:26:16.960Z,38.21
2019-03-23T08:28:47.076Z,38.30
2019-03-23T08:31:17.314Z,38.39
2019-03-23T08:33:47.617Z,38.84
2019-03-23T08:36:18.676Z,38.85
2019-03-23T08:38:48.926Z,38.71
2019-03-23T08:41:19.204Z,38.59
2019-03-23T08:43:49.518Z,38.58
2019-03-23T08:46:19.779Z,38.56
2019-03-23T08:48:49.991Z,38.53
2019-03-23T08:51:20.224Z,38.49
2019-03-23T08:53:50.521Z,38.52
2019-03-23T08:56:20.740Z,38.49
2019-03-23T08:58:48.624Z,38.51
2019-03-23T09:01:18.932Z,38.45
2019-03-23T09:03:52.723Z,38.43
2019-03-23T09:06:21.025Z,38.48
2019-03-23T09:08:51.189Z,38.43
2019-03-23T09:11:21.285Z,38.41
2019-03-23T09:13:51.596Z,38.46
2019-03-23T09:16:21.908Z,38.89
2019-03-23T09:18:52.064Z,39.03
2019-03-23T09:21:22.289Z,38.89
2019-03-23T09:23:52.586Z,38.81
2019-03-23T09:26:22.906Z,38.78
2019-03-23T09:28:53.145Z,38.12
2019-03-23T09:31:23.373Z,38.40
2019-03-23T09:33:53.639Z,38.60
2019-03-23T09:36:23.810Z,38.72
2019-03-23T09:38:54.016Z,38.68
2019-03-23T09:41:24.256Z,38.70
2019-03-23T09:43:54.488Z,38.83
2019-03-23T09:46:24.699Z,38.93
2019-03-23T09:48:54.940Z,38.96
2019-03-23T09:51:25.240Z,39.01
2019-03-23T09:53:55.455Z,39.06
2019-03-23T09:56:25.612Z,38.85
2019-03-23T09:58:55.817Z,39.08
2019-03-23T10:01:26.038Z,39.41
2019-03-23T10:03:56.348Z,39.13
2019-03-23T10:06:26.585Z,38.98
2019-03-23T10:08:56.808Z,38.95
2019-03-23T10:11:27.036Z,39.02
2019-03-23T10:13:57.272Z,39.03
2019-03-23T10:16:27.577Z,38.95
2019-03-23T10:18:57.895Z,38.90
2019-03-23T10:21:28.220Z,38.97
2019-03-23T10:23:58.366Z,39.13
2019-03-23T10:26:28.590Z,39.32
2019-03-23T10:28:58.851Z,39.28
2019-03-23T10:31:29.122Z,39.24
2019-03-23T10:33:59.455Z,39.27
2019-03-23T10:36:29.567Z,38.93
2019-03-23T10:38:59.805Z,38.63
2019-03-23T10:41:30.010Z,38.51
2019-03-23T10:44:00.003Z,38.34
2019-03-23T10:46:30.165Z,38.31
2019-03-23T10:49:00.380Z,38.24
2019-03-23T10:51:30.611Z,38.18
2019-03-23T10:54:00.927Z,38.17
2019-03-23T10:56:31.237Z,38.19
2019-03-23T10:59:01.379Z,38.15
2019-03-23T11:01:31.598Z,38.15
2019-03-23T11:04:01.947Z,38.13
2019-03-23T11:06:32.163Z,38.09
2019-03-23T11:09:02.532Z,38.09
2019-03-23T11:11:32.783Z,38.06
2019-03-23T11:14:02.925Z,38.02
2019-03-23T11:16:33.145Z,38.03
2019-03-23T11:19:09.583Z,38.02
2019-03-23T11:21:35.317Z,38.05
2019-03-23T11:24:05.641Z,38.12
2019-03-23T11:26:35.891Z,37.84
2019-03-23T11:29:06.001Z,38.02
2019-03-23T11:31:36.129Z,38.03
2019-03-23T11:34:06.428Z,38.03
2019-03-23T11:36:36.649Z,38.06
2019-03-23T11:39:07.820Z,38.02
2019-03-23T11:41:37.987Z,38.01
2019-03-23T11:44:08.243Z,38.02
2019-03-23T11:46:38.334Z,38.01
2019-03-23T11:49:08.388Z,38.11
2019-03-23T11:51:38.708Z,38.04
2019-03-23T11:54:09.027Z,38.00
2019-03-23T11:56:39.358Z,38.02
2019-03-23T11:59:09.532Z,38.03
2019-03-23T12:01:39.841Z,38.03
2019-03-23T12:04:10.044Z,38.35
2019-03-23T12:06:40.358Z,38.39
2019-03-23T12:09:10.575Z,38.72
2019-03-23T12:11:40.811Z,38.91
2019-03-23T12:14:11.040Z,38.94
2019-03-23T12:16:41.402Z,39.04
2019-03-23T12:19:11.656Z,39.10
2019-03-23T12:21:41.888Z,38.83
2019-03-23T12:24:12.034Z,38.87
2019-03-23T12:26:42.259Z,39.16
2019-03-23T12:29:12.497Z,39.21
2019-03-23T12:31:42.781Z,39.25
2019-03-23T12:34:13.013Z,39.29
2019-03-23T12:36:43.335Z,39.31
2019-03-23T12:39:13.483Z,40.32
2019-03-23T12:41:43.727Z,36.39
2019-03-23T12:44:13.937Z,35.46
2019-03-23T12:46:48.287Z,37.03
2019-03-23T12:49:16.191Z,38.05
2019-03-23T12:51:46.324Z,38.28
2019-03-23T12:54:16.561Z,38.25
2019-03-23T12:56:46.763Z,38.23
2019-03-23T12:59:17.119Z,38.26
2019-03-23T13:01:47.519Z,38.23
2019-03-23T13:04:17.834Z,38.30
2019-03-23T13:06:48.070Z,38.21
2019-03-23T13:09:18.296Z,38.11
2019-03-23T13:11:48.533Z,38.11
2019-03-23T13:14:18.824Z,38.18
2019-03-23T13:16:49.154Z,38.11
2019-03-23T13:19:19.368Z,38.14
2019-03-23T13:21:49.513Z,38.12
2019-03-23T13:24:19.734Z,38.12
2019-03-23T13:26:49.967Z,38.11
2019-03-23T13:29:20.262Z,38.07
2019-03-23T13:31:50.495Z,38.06
2019-03-23T13:34:20.720Z,38.08
2019-03-23T13:36:50.960Z,38.04
2019-03-23T13:39:21.180Z,38.03
2019-03-23T13:41:51.832Z,38.01
2019-03-23T13:44:22.122Z,38.04
2019-03-23T13:46:52.447Z,38.08
2019-03-23T13:49:22.764Z,38.07
2019-03-23T13:51:53.021Z,38.10
2019-03-23T13:54:23.139Z,38.03
2019-03-23T13:56:53.360Z,38.13
2019-03-23T13:59:23.654Z,38.12
2019-03-23T14:01:53.882Z,38.14
2019-03-23T14:04:24.133Z,38.19
2019-03-23T14:06:54.351Z,38.15
2019-03-23T14:09:24.554Z,38.20
2019-03-23T14:11:55.459Z,38.21
2019-03-23T14:14:25.630Z,38.21
2019-03-23T14:16:55.940Z,38.19
2019-03-23T14:19:26.255Z,38.20
2019-03-23T14:21:56.406Z,38.20
2019-03-23T14:24:26.611Z,38.18
2019-03-23T14:26:56.860Z,38.25
2019-03-23T14:29:27.149Z,38.24
2019-03-23T14:31:57.477Z,38.24
2019-03-23T14:34:27.620Z,38.35
2019-03-23T14:36:57.844Z,38.29
2019-03-23T14:39:28.136Z,38.27
2019-03-23T14:42:04.794Z,38.31
2019-03-23T14:44:30.324Z,38.27
2019-03-23T14:47:00.586Z,38.36
2019-03-23T14:49:30.790Z,38.32
2019-03-23T14:52:01.028Z,38.27
2019-03-23T14:54:31.334Z,38.35
2019-03-23T14:57:01.408Z,38.28
2019-03-23T14:59:31.568Z,38.32
2019-03-23T15:02:01.822Z,38.27
2019-03-23T15:04:32.026Z,38.36
2019-03-23T15:07:02.345Z,38.32
2019-03-23T15:09:32.658Z,38.33
2019-03-23T15:12:02.823Z,38.33
2019-03-23T15:14:33.144Z,38.21
2019-03-23T15:17:03.354Z,38.18
2019-03-23T15:19:33.653Z,38.17
2019-03-23T15:22:03.984Z,38.13
2019-03-23T15:24:34.314Z,38.18
2019-03-23T15:27:04.683Z,38.13
2019-03-23T15:29:34.865Z,38.14
2019-03-23T15:32:05.101Z,38.10
2019-03-23T15:34:35.320Z,38.09
2019-03-23T15:37:05.631Z,36.97
2019-03-23T15:39:35.950Z,36.51
2019-03-23T15:42:06.104Z,37.71
2019-03-23T15:44:36.301Z,38.30
2019-03-23T15:47:06.538Z,37.95
2019-03-23T15:49:36.849Z,37.53
2019-03-23T15:52:07.068Z,37.06
2019-03-23T15:54:37.311Z,36.79
2019-03-23T15:57:07.532Z,36.42
2019-03-23T15:59:37.769Z,35.88
2019-03-23T16:02:08.184Z,35.72
2019-03-23T16:04:38.390Z,35.28
2019-03-23T16:07:08.616Z,34.96
2019-03-23T16:09:38.764Z,34.63
2019-03-23T16:12:09.084Z,34.71
2019-03-23T16:14:39.391Z,35.13
2019-03-23T16:17:09.701Z,35.53
2019-03-23T16:19:39.850Z,35.58
2019-03-23T16:22:10.067Z,35.77
2019-03-23T16:24:40.298Z,35.80
2019-03-23T16:27:10.595Z,36.01
2019-03-23T16:29:40.835Z,36.23
2019-03-23T16:32:11.169Z,36.15
2019-03-23T16:34:41.399Z,36.02
2019-03-23T16:37:11.619Z,36.07
2019-03-23T16:39:41.761Z,35.32
2019-03-23T16:42:11.843Z,35.46
2019-03-23T16:44:42.090Z,35.99
2019-03-23T16:47:12.344Z,36.30
2019-03-23T16:49:42.534Z,36.10
2019-03-23T16:52:12.927Z,36.20
2019-03-23T16:54:43.175Z,36.38
2019-03-23T16:57:14.609Z,36.69
2019-03-23T16:59:44.934Z,37.01
2019-03-23T17:02:15.252Z,37.11
2019-03-23T17:04:45.508Z,39.08
2019-03-23T17:07:15.712Z,38.23
2019-03-23T17:09:45.950Z,39.10
2019-03-23T17:12:16.260Z,39.55
2019-03-23T17:14:46.614Z,39.20
2019-03-23T17:17:16.997Z,39.08
2019-03-23T17:19:47.151Z,38.80
2019-03-23T17:22:17.347Z,38.88
2019-03-23T17:24:47.673Z,39.29
2019-03-23T17:27:17.997Z,39.39
2019-03-23T17:29:48.263Z,39.59
2019-03-23T17:32:18.451Z,39.73
2019-03-23T17:34:48.693Z,39.58
2019-03-23T17:37:18.993Z,39.73
2019-03-23T17:39:49.217Z,39.89
2019-03-23T17:42:19.453Z,39.70
2019-03-23T17:44:49.591Z,39.60
2019-03-23T17:47:19.790Z,39.91
2019-03-23T17:49:50.111Z,40.12
2019-03-23T17:52:20.424Z,40.62
2019-03-23T17:54:50.598Z,40.21
2019-03-23T17:57:23.008Z,39.74
2019-03-23T17:59:52.579Z,39.86
2019-03-23T18:02:22.927Z,39.71
2019-03-23T18:04:53.187Z,39.70
2019-03-23T18:07:23.509Z,39.88
2019-03-23T18:09:53.679Z,39.86
2019-03-23T18:12:23.878Z,40.00
2019-03-23T18:14:54.101Z,39.94
2019-03-23T18:17:24.393Z,40.07
2019-03-23T18:19:54.732Z,40.11
2019-03-23T18:22:24.970Z,40.19
2019-03-23T18:24:55.197Z,40.24
2019-03-23T18:27:25.401Z,40.19
2019-03-23T18:29:55.723Z,40.09
2019-03-23T18:32:26.035Z,40.37
2019-03-23T18:34:56.369Z,40.09
2019-03-23T18:37:26.613Z,40.23
2019-03-23T18:39:56.963Z,40.20
2019-03-23T18:42:27.162Z,40.21
2019-03-23T18:44:57.476Z,40.10
2019-03-23T18:47:27.789Z,40.13
2019-03-23T18:49:58.022Z,40.18
2019-03-23T18:52:28.249Z,39.97
2019-03-23T18:54:58.483Z,40.17
2019-03-23T18:57:28.695Z,39.81
2019-03-23T18:59:59.008Z,40.19
2019-03-23T19:02:29.329Z,40.18
2019-03-23T19:04:59.586Z,40.11
2019-03-23T19:07:29.785Z,40.31
2019-03-23T19:10:00.034Z,40.18
2019-03-23T19:12:30.330Z,40.23
2019-03-23T19:15:00.554Z,40.34
2019-03-23T19:17:30.505Z,40.22
2019-03-23T19:20:00.720Z,40.50
2019-03-23T19:22:30.932Z,40.42
2019-03-23T19:25:01.241Z,40.52
2019-03-23T19:27:31.561Z,40.58
2019-03-23T19:30:01.741Z,40.33
2019-03-23T19:32:31.942Z,40.46
2019-03-23T19:35:02.156Z,40.80
2019-03-23T19:37:32.458Z,40.49
2019-03-23T19:40:02.774Z,40.65
2019-03-23T19:42:32.927Z,40.57
2019-03-23T19:45:03.071Z,40.67
2019-03-23T19:47:33.295Z,40.57
2019-03-23T19:50:03.490Z,40.68
2019-03-23T19:52:33.810Z,40.79
2019-03-23T19:55:03.747Z,40.80
2019-03-23T19:57:31.477Z,40.52
2019-03-23T20:00:01.730Z,40.47
2019-03-23T20:02:31.937Z,40.34
2019-03-23T20:05:02.137Z,40.55
2019-03-23T20:07:33.401Z,40.40
2019-03-23T20:10:03.637Z,40.29
2019-03-23T20:12:33.853Z,40.36
2019-03-23T20:15:04.155Z,40.40
2019-03-23T20:17:34.305Z,40.29
2019-03-23T20:20:04.846Z,40.32
2019-03-23T20:22:35.076Z,40.28
2019-03-23T20:25:05.559Z,40.21
2019-03-23T20:27:35.785Z,40.20
2019-03-23T20:30:06.428Z,40.09
2019-03-23T20:32:36.750Z,40.31
2019-03-23T20:35:07.275Z,40.22
2019-03-23T20:37:37.492Z,40.15
2019-03-23T20:40:08.039Z,40.12
2019-03-23T20:42:38.312Z,40.19
2019-03-23T20:45:08.577Z,40.10
2019-03-23T20:47:38.816Z,40.15
2019-03-23T20:50:09.637Z,39.94
2019-03-23T20:52:39.898Z,39.98
2019-03-23T20:55:24.124Z,40.03
2019-03-23T20:57:54.764Z,40.04
2019-03-23T21:00:25.201Z,40.21
2019-03-23T21:02:55.498Z,40.27
2019-03-23T21:05:33.888Z,40.39
2019-03-23T21:07:57.681Z,40.20
2019-03-23T21:10:27.845Z,40.30
2019-03-23T21:12:58.045Z,40.26
2019-03-23T21:15:28.279Z,40.25
2019-03-23T21:17:58.571Z,40.15
2019-03-23T21:20:28.945Z,40.11
2019-03-23T21:22:59.137Z,40.06
2019-03-23T21:25:29.376Z,39.93
2019-03-23T21:27:59.599Z,40.05
2019-03-23T21:30:29.902Z,40.09
2019-03-23T21:33:00.217Z,40.05
2019-03-23T21:35:30.438Z,39.98
2019-03-23T21:38:00.596Z,39.98
2019-03-23T21:40:30.803Z,40.07
2019-03-23T21:43:01.032Z,40.09
2019-03-23T21:45:31.334Z,39.88
2019-03-23T21:48:01.562Z,39.91
2019-03-23T21:50:31.797Z,39.86
2019-03-23T21:53:02.023Z,39.89
2019-03-23T21:55:32.249Z,39.84
2019-03-23T21:58:02.563Z,39.96
2019-03-23T22:00:35.887Z,39.83
2019-03-23T22:03:06.088Z,40.00
2019-03-23T22:05:36.314Z,40.01
2019-03-23T22:08:06.550Z,39.95
2019-03-23T22:10:36.839Z,40.14
2019-03-23T22:13:07.068Z,40.04
2019-03-23T22:15:37.387Z,40.05
2019-03-23T22:18:07.646Z,40.05
2019-03-23T22:20:37.857Z,39.99
2019-03-23T22:23:08.168Z,39.86
2019-03-23T22:25:38.396Z,39.87
2019-03-23T22:28:08.634Z,39.90
2019-03-23T22:30:38.844Z,39.92
2019-03-23T22:33:09.152Z,39.90
2019-03-23T22:35:39.475Z,39.98
2019-03-23T22:38:09.705Z,39.91
2019-03-23T22:40:39.942Z,39.91
2019-03-23T22:43:10.218Z,39.95
2019-03-23T22:45:40.392Z,39.99
2019-03-23T22:48:10.739Z,39.87
2019-03-23T22:50:41.012Z,39.93
2019-03-23T22:53:11.350Z,40.04
2019-03-23T22:55:41.610Z,40.00
2019-03-23T22:58:11.827Z,39.93
2019-03-23T23:00:43.140Z,39.86
2019-03-23T23:03:13.888Z,39.82
2019-03-23T23:05:44.178Z,39.75
2019-03-23T23:08:14.355Z,39.80
2019-03-23T23:10:44.557Z,39.79
2019-03-23T23:13:14.844Z,39.74
2019-03-23T23:15:45.088Z,39.75
2019-03-23T23:18:15.320Z,39.85
2019-03-23T23:20:45.464Z,40.04
2019-03-23T23:23:15.686Z,39.93
2019-03-23T23:25:45.901Z,40.06
2019-03-23T23:28:16.200Z,40.27
2019-03-23T23:30:46.427Z,40.48
2019-03-23T23:33:16.561Z,40.76
2019-03-23T23:35:46.790Z,41.32
2019-03-23T23:38:17.009Z,40.92
2019-03-23T23:40:47.322Z,41.62
2019-03-23T23:43:17.542Z,42.06
2019-03-23T23:45:47.677Z,41.45
2019-03-23T23:48:17.899Z,41.10
2019-03-23T23:50:48.141Z,40.64
2019-03-23T23:53:18.428Z,40.53
2019-03-23T23:55:48.652Z,40.11
2019-03-23T23:58:18.784Z,40.14
